sensor_id;sensor_type;location;lat;lon;timestamp;P1;durP1;ratioP1;P2;durP2;ratioP2
12962;SDS011;6546;49.882;8.666;2022-10-26T00:00:30;5.03;;;2.30;;
12962;SDS011;6546;49.882;8.666;2022-10-26T00:02:57;4.73;;;3.00;;
12962;SDS011;6546;49.882;8.666;2022-10-26T00:05:23;8.63;;;2.90;;
12962;SDS011;6546;49.882;8.666;2022-10-26T00:07:50;10.53;;;3.00;;
12962;SDS011;6546;49.882;8.666;2022-10-26T00:10:16;9.57;;;3.30;;
12962;SDS011;6546;49.882;8.666;2022-10-26T00:12:47;10.27;;;3.40;;
12962;SDS011;6546;49.882;8.666;2022-10-26T00:15:15;8.07;;;2.90;;
12962;SDS011;6546;49.882;8.666;2022-10-26T00:17:42;6.23;;;3.33;;
12962;SDS011;6546;49.882;8.666;2022-10-26T00:20:09;5.13;;;2.83;;
12962;SDS011;6546;49.882;8.666;2022-10-26T00:22:36;11.63;;;3.17;;
12962;SDS011;6546;49.882;8.666;2022-10-26T00:25:03;7.53;;;2.80;;
12962;SDS011;6546;49.882;8.666;2022-10-26T00:27:30;4.17;;;2.93;;
12962;SDS011;6546;49.882;8.666;2022-10-26T00:29:58;4.70;;;2.67;;
12962;SDS011;6546;49.882;8.666;2022-10-26T00:32:26;6.00;;;3.00;;
12962;SDS011;6546;49.882;8.666;2022-10-26T00:34:52;10.67;;;3.20;;
12962;SDS011;6546;49.882;8.666;2022-10-26T00:37:19;7.30;;;3.10;;
12962;SDS011;6546;49.882;8.666;2022-10-26T00:39:46;5.73;;;3.00;;
12962;SDS011;6546;49.882;8.666;2022-10-26T00:42:14;6.23;;;3.03;;
12962;SDS011;6546;49.882;8.666;2022-10-26T00:44:58;7.53;;;3.13;;
12962;SDS011;6546;49.882;8.666;2022-10-26T00:47:33;6.87;;;3.30;;
12962;SDS011;6546;49.882;8.666;2022-10-26T00:50:06;9.77;;;3.27;;
12962;SDS011;6546;49.882;8.666;2022-10-26T00:52:35;10.87;;;3.53;;
12962;SDS011;6546;49.882;8.666;2022-10-26T00:55:03;7.43;;;3.67;;
12962;SDS011;6546;49.882;8.666;2022-10-26T00:57:31;5.77;;;3.33;;
12962;SDS011;6546;49.882;8.666;2022-10-26T00:59:58;7.30;;;3.53;;
12962;SDS011;6546;49.882;8.666;2022-10-26T01:02:25;7.07;;;3.50;;
12962;SDS011;6546;49.882;8.666;2022-10-26T01:04:53;7.90;;;3.70;;
12962;SDS011;6546;49.882;8.666;2022-10-26T01:07:21;5.93;;;3.70;;
12962;SDS011;6546;49.882;8.666;2022-10-26T01:09:48;7.70;;;3.50;;
12962;SDS011;6546;49.882;8.666;2022-10-26T01:12:15;7.20;;;3.57;;
12962;SDS011;6546;49.882;8.666;2022-10-26T01:14:41;5.73;;;3.33;;
12962;SDS011;6546;49.882;8.666;2022-10-26T01:17:12;4.87;;;3.50;;
12962;SDS011;6546;49.882;8.666;2022-10-26T01:22:59;7.77;;;3.40;;
12962;SDS011;6546;49.882;8.666;2022-10-26T01:25:38;8.50;;;4.13;;
12962;SDS011;6546;49.882;8.666;2022-10-26T01:28:18;6.10;;;3.50;;
12962;SDS011;6546;49.882;8.666;2022-10-26T01:30:58;8.77;;;3.50;;
12962;SDS011;6546;49.882;8.666;2022-10-26T01:33:30;5.60;;;3.33;;
12962;SDS011;6546;49.882;8.666;2022-10-26T01:36:05;5.10;;;3.13;;
12962;SDS011;6546;49.882;8.666;2022-10-26T01:38:41;10.13;;;6.30;;
12962;SDS011;6546;49.882;8.666;2022-10-26T01:41:14;10.37;;;6.10;;
12962;SDS011;6546;49.882;8.666;2022-10-26T01:43:47;6.17;;;3.50;;
12962;SDS011;6546;49.882;8.666;2022-10-26T01:46:20;5.70;;;3.40;;
12962;SDS011;6546;49.882;8.666;2022-10-26T01:48:49;5.77;;;3.43;;
12962;SDS011;6546;49.882;8.666;2022-10-26T01:51:24;8.87;;;3.40;;
12962;SDS011;6546;49.882;8.666;2022-10-26T01:53:52;8.40;;;3.47;;
12962;SDS011;6546;49.882;8.666;2022-10-26T01:56:20;5.70;;;3.23;;
12962;SDS011;6546;49.882;8.666;2022-10-26T01:58:54;9.20;;;3.80;;
12962;SDS011;6546;49.882;8.666;2022-10-26T02:04:24;4.53;;;3.37;;
12962;SDS011;6546;49.882;8.666;2022-10-26T02:07:06;6.07;;;3.53;;
12962;SDS011;6546;49.882;8.666;2022-10-26T02:09:55;9.00;;;3.50;;
12962;SDS011;6546;49.882;8.666;2022-10-26T02:12:28;8.43;;;3.40;;
12962;SDS011;6546;49.882;8.666;2022-10-26T02:15:00;6.70;;;3.63;;
12962;SDS011;6546;49.882;8.666;2022-10-26T02:17:33;5.67;;;3.73;;
12962;SDS011;6546;49.882;8.666;2022-10-26T02:20:08;7.53;;;3.23;;
12962;SDS011;6546;49.882;8.666;2022-10-26T02:22:44;6.10;;;3.30;;
12962;SDS011;6546;49.882;8.666;2022-10-26T02:25:15;6.70;;;3.57;;
12962;SDS011;6546;49.882;8.666;2022-10-26T02:27:48;6.43;;;3.37;;
12962;SDS011;6546;49.882;8.666;2022-10-26T02:30:18;7.07;;;3.37;;
12962;SDS011;6546;49.882;8.666;2022-10-26T02:32:47;8.07;;;3.57;;
12962;SDS011;6546;49.882;8.666;2022-10-26T02:35:18;8.60;;;3.27;;
12962;SDS011;6546;49.882;8.666;2022-10-26T02:37:48;7.17;;;4.03;;
12962;SDS011;6546;49.882;8.666;2022-10-26T02:40:25;8.00;;;3.60;;
12962;SDS011;6546;49.882;8.666;2022-10-26T02:42:54;6.10;;;3.80;;
12962;SDS011;6546;49.882;8.666;2022-10-26T02:45:25;7.20;;;3.67;;
12962;SDS011;6546;49.882;8.666;2022-10-26T02:47:57;7.00;;;2.83;;
12962;SDS011;6546;49.882;8.666;2022-10-26T02:50:25;6.93;;;3.70;;
12962;SDS011;6546;49.882;8.666;2022-10-26T02:53:02;8.93;;;3.60;;
12962;SDS011;6546;49.882;8.666;2022-10-26T02:55:35;7.07;;;3.17;;
12962;SDS011;6546;49.882;8.666;2022-10-26T02:58:06;7.30;;;3.37;;
12962;SDS011;6546;49.882;8.666;2022-10-26T03:00:42;7.27;;;3.50;;
12962;SDS011;6546;49.882;8.666;2022-10-26T03:03:12;5.47;;;3.57;;
12962;SDS011;6546;49.882;8.666;2022-10-26T03:05:40;7.73;;;3.57;;
12962;SDS011;6546;49.882;8.666;2022-10-26T03:08:07;7.27;;;3.50;;
12962;SDS011;6546;49.882;8.666;2022-10-26T03:10:34;5.00;;;3.60;;
12962;SDS011;6546;49.882;8.666;2022-10-26T03:13:06;6.17;;;3.23;;
12962;SDS011;6546;49.882;8.666;2022-10-26T03:15:32;8.80;;;3.60;;
12962;SDS011;6546;49.882;8.666;2022-10-26T03:17:59;7.93;;;4.17;;
12962;SDS011;6546;49.882;8.666;2022-10-26T03:20:26;6.60;;;3.53;;
12962;SDS011;6546;49.882;8.666;2022-10-26T03:22:53;8.87;;;3.87;;
12962;SDS011;6546;49.882;8.666;2022-10-26T03:25:21;6.27;;;3.60;;
12962;SDS011;6546;49.882;8.666;2022-10-26T03:27:54;6.13;;;3.60;;
12962;SDS011;6546;49.882;8.666;2022-10-26T03:30:25;8.77;;;3.33;;
12962;SDS011;6546;49.882;8.666;2022-10-26T03:32:52;6.93;;;3.43;;
12962;SDS011;6546;49.882;8.666;2022-10-26T03:35:20;7.90;;;3.57;;
12962;SDS011;6546;49.882;8.666;2022-10-26T03:37:48;10.40;;;4.00;;
12962;SDS011;6546;49.882;8.666;2022-10-26T03:40:14;8.90;;;3.70;;
12962;SDS011;6546;49.882;8.666;2022-10-26T03:42:41;5.60;;;3.47;;
12962;SDS011;6546;49.882;8.666;2022-10-26T03:45:08;5.47;;;3.73;;
12962;SDS011;6546;49.882;8.666;2022-10-26T03:47:39;4.70;;;3.37;;
12962;SDS011;6546;49.882;8.666;2022-10-26T03:50:09;7.63;;;3.30;;
12962;SDS011;6546;49.882;8.666;2022-10-26T03:52:37;5.77;;;3.47;;
12962;SDS011;6546;49.882;8.666;2022-10-26T03:55:06;4.53;;;4.00;;
12962;SDS011;6546;49.882;8.666;2022-10-26T03:57:33;8.90;;;3.73;;
12962;SDS011;6546;49.882;8.666;2022-10-26T03:59:59;6.40;;;3.53;;
12962;SDS011;6546;49.882;8.666;2022-10-26T04:02:27;7.03;;;3.90;;
12962;SDS011;6546;49.882;8.666;2022-10-26T04:04:54;6.50;;;3.87;;
12962;SDS011;6546;49.882;8.666;2022-10-26T04:07:20;5.60;;;3.40;;
12962;SDS011;6546;49.882;8.666;2022-10-26T04:09:47;4.73;;;3.27;;
12962;SDS011;6546;49.882;8.666;2022-10-26T04:12:15;6.30;;;3.77;;
12962;SDS011;6546;49.882;8.666;2022-10-26T04:14:41;3.90;;;2.93;;
12962;SDS011;6546;49.882;8.666;2022-10-26T04:17:08;7.17;;;3.73;;
12962;SDS011;6546;49.882;8.666;2022-10-26T04:19:34;5.73;;;2.80;;
12962;SDS011;6546;49.882;8.666;2022-10-26T04:22:01;7.13;;;3.53;;
12962;SDS011;6546;49.882;8.666;2022-10-26T04:24:27;4.30;;;3.10;;
12962;SDS011;6546;49.882;8.666;2022-10-26T04:26:54;5.63;;;2.60;;
12962;SDS011;6546;49.882;8.666;2022-10-26T04:29:22;5.53;;;3.30;;
12962;SDS011;6546;49.882;8.666;2022-10-26T04:31:48;5.90;;;3.20;;
12962;SDS011;6546;49.882;8.666;2022-10-26T04:34:15;7.97;;;2.87;;
12962;SDS011;6546;49.882;8.666;2022-10-26T04:36:41;4.03;;;2.90;;
12962;SDS011;6546;49.882;8.666;2022-10-26T04:39:08;9.93;;;3.53;;
12962;SDS011;6546;49.882;8.666;2022-10-26T04:41:34;7.60;;;3.63;;
12962;SDS011;6546;49.882;8.666;2022-10-26T04:44:01;6.10;;;3.90;;
12962;SDS011;6546;49.882;8.666;2022-10-26T04:46:28;7.93;;;3.53;;
12962;SDS011;6546;49.882;8.666;2022-10-26T04:48:55;7.67;;;3.97;;
12962;SDS011;6546;49.882;8.666;2022-10-26T04:51:22;11.73;;;3.43;;
12962;SDS011;6546;49.882;8.666;2022-10-26T04:53:49;7.23;;;3.70;;
12962;SDS011;6546;49.882;8.666;2022-10-26T04:56:18;7.60;;;3.87;;
12962;SDS011;6546;49.882;8.666;2022-10-26T04:58:44;5.80;;;3.60;;
12962;SDS011;6546;49.882;8.666;2022-10-26T05:01:11;5.30;;;3.53;;
12962;SDS011;6546;49.882;8.666;2022-10-26T05:03:39;6.90;;;3.60;;
12962;SDS011;6546;49.882;8.666;2022-10-26T05:06:05;5.93;;;3.20;;
12962;SDS011;6546;49.882;8.666;2022-10-26T05:08:32;7.90;;;2.90;;
12962;SDS011;6546;49.882;8.666;2022-10-26T05:10:58;6.97;;;3.27;;
12962;SDS011;6546;49.882;8.666;2022-10-26T05:13:25;7.33;;;3.77;;
12962;SDS011;6546;49.882;8.666;2022-10-26T05:15:52;6.47;;;3.47;;
12962;SDS011;6546;49.882;8.666;2022-10-26T05:18:20;6.63;;;3.30;;
12962;SDS011;6546;49.882;8.666;2022-10-26T05:20:50;10.27;;;3.50;;
12962;SDS011;6546;49.882;8.666;2022-10-26T05:23:17;5.63;;;3.10;;
12962;SDS011;6546;49.882;8.666;2022-10-26T05:25:44;5.50;;;2.90;;
12962;SDS011;6546;49.882;8.666;2022-10-26T05:28:11;6.57;;;3.87;;
12962;SDS011;6546;49.882;8.666;2022-10-26T05:30:39;6.77;;;3.23;;
12962;SDS011;6546;49.882;8.666;2022-10-26T05:33:07;4.77;;;3.17;;
12962;SDS011;6546;49.882;8.666;2022-10-26T05:35:35;5.83;;;3.20;;
12962;SDS011;6546;49.882;8.666;2022-10-26T05:38:06;6.70;;;3.17;;
12962;SDS011;6546;49.882;8.666;2022-10-26T05:40:34;4.33;;;2.70;;
12962;SDS011;6546;49.882;8.666;2022-10-26T05:43:02;5.83;;;3.00;;
12962;SDS011;6546;49.882;8.666;2022-10-26T05:45:30;4.80;;;3.00;;
12962;SDS011;6546;49.882;8.666;2022-10-26T05:47:59;5.23;;;3.60;;
12962;SDS011;6546;49.882;8.666;2022-10-26T05:50:25;6.20;;;3.63;;
12962;SDS011;6546;49.882;8.666;2022-10-26T05:52:52;4.63;;;3.30;;
12962;SDS011;6546;49.882;8.666;2022-10-26T05:55:21;8.10;;;3.40;;
12962;SDS011;6546;49.882;8.666;2022-10-26T05:57:49;5.13;;;3.63;;
12962;SDS011;6546;49.882;8.666;2022-10-26T06:00:16;7.87;;;3.30;;
12962;SDS011;6546;49.882;8.666;2022-10-26T06:02:48;5.20;;;3.47;;
12962;SDS011;6546;49.882;8.666;2022-10-26T06:05:30;5.97;;;3.00;;
12962;SDS011;6546;49.882;8.666;2022-10-26T06:08:00;6.70;;;3.40;;
12962;SDS011;6546;49.882;8.666;2022-10-26T06:10:29;6.37;;;3.57;;
12962;SDS011;6546;49.882;8.666;2022-10-26T06:12:56;5.03;;;3.33;;
12962;SDS011;6546;49.882;8.666;2022-10-26T06:15:23;5.40;;;3.77;;
12962;SDS011;6546;49.882;8.666;2022-10-26T06:17:54;6.57;;;3.40;;
12962;SDS011;6546;49.882;8.666;2022-10-26T06:20:36;7.63;;;3.30;;
12962;SDS011;6546;49.882;8.666;2022-10-26T06:23:17;6.07;;;4.00;;
12962;SDS011;6546;49.882;8.666;2022-10-26T06:26:06;9.63;;;4.10;;
12962;SDS011;6546;49.882;8.666;2022-10-26T06:28:42;10.17;;;3.80;;
12962;SDS011;6546;49.882;8.666;2022-10-26T06:31:22;8.20;;;4.03;;
12962;SDS011;6546;49.882;8.666;2022-10-26T06:33:49;7.10;;;3.83;;
12962;SDS011;6546;49.882;8.666;2022-10-26T06:36:24;7.20;;;3.93;;
12962;SDS011;6546;49.882;8.666;2022-10-26T06:38:53;7.07;;;5.17;;
12962;SDS011;6546;49.882;8.666;2022-10-26T06:41:25;7.67;;;5.10;;
12962;SDS011;6546;49.882;8.666;2022-10-26T06:43:52;9.87;;;5.03;;
12962;SDS011;6546;49.882;8.666;2022-10-26T06:46:24;6.20;;;4.33;;
12962;SDS011;6546;49.882;8.666;2022-10-26T06:49:03;6.00;;;3.83;;
12962;SDS011;6546;49.882;8.666;2022-10-26T06:51:37;9.90;;;4.67;;
12962;SDS011;6546;49.882;8.666;2022-10-26T06:54:12;7.73;;;4.10;;
12962;SDS011;6546;49.882;8.666;2022-10-26T06:56:46;9.77;;;4.47;;
12962;SDS011;6546;49.882;8.666;2022-10-26T06:59:15;9.87;;;5.10;;
12962;SDS011;6546;49.882;8.666;2022-10-26T07:01:52;7.07;;;5.00;;
12962;SDS011;6546;49.882;8.666;2022-10-26T07:04:19;15.33;;;5.83;;
12962;SDS011;6546;49.882;8.666;2022-10-26T07:06:45;8.17;;;5.77;;
12962;SDS011;6546;49.882;8.666;2022-10-26T07:09:12;9.00;;;5.57;;
12962;SDS011;6546;49.882;8.666;2022-10-26T07:11:38;10.13;;;5.47;;
12962;SDS011;6546;49.882;8.666;2022-10-26T07:14:07;8.53;;;5.47;;
12962;SDS011;6546;49.882;8.666;2022-10-26T07:16:33;8.33;;;5.80;;
12962;SDS011;6546;49.882;8.666;2022-10-26T07:19:01;9.27;;;5.37;;
12962;SDS011;6546;49.882;8.666;2022-10-26T07:21:28;9.70;;;5.43;;
12962;SDS011;6546;49.882;8.666;2022-10-26T07:23:54;5.90;;;4.93;;
12962;SDS011;6546;49.882;8.666;2022-10-26T07:26:21;9.00;;;5.03;;
12962;SDS011;6546;49.882;8.666;2022-10-26T07:28:49;7.87;;;5.00;;
12962;SDS011;6546;49.882;8.666;2022-10-26T07:31:17;8.73;;;4.87;;
12962;SDS011;6546;49.882;8.666;2022-10-26T07:33:44;9.53;;;4.73;;
12962;SDS011;6546;49.882;8.666;2022-10-26T07:36:14;6.77;;;4.57;;
12962;SDS011;6546;49.882;8.666;2022-10-26T07:38:40;9.20;;;4.90;;
12962;SDS011;6546;49.882;8.666;2022-10-26T07:41:07;8.27;;;4.93;;
12962;SDS011;6546;49.882;8.666;2022-10-26T07:43:33;10.60;;;4.70;;
12962;SDS011;6546;49.882;8.666;2022-10-26T07:46:00;10.83;;;4.53;;
12962;SDS011;6546;49.882;8.666;2022-10-26T07:48:28;10.00;;;5.17;;
12962;SDS011;6546;49.882;8.666;2022-10-26T07:50:54;10.20;;;4.43;;
12962;SDS011;6546;49.882;8.666;2022-10-26T07:53:21;7.77;;;5.03;;
12962;SDS011;6546;49.882;8.666;2022-10-26T07:55:51;7.03;;;5.03;;
12962;SDS011;6546;49.882;8.666;2022-10-26T07:58:18;8.33;;;4.70;;
12962;SDS011;6546;49.882;8.666;2022-10-26T08:00:47;8.13;;;4.27;;
12962;SDS011;6546;49.882;8.666;2022-10-26T08:03:14;7.40;;;4.40;;
12962;SDS011;6546;49.882;8.666;2022-10-26T08:05:44;8.23;;;4.70;;
12962;SDS011;6546;49.882;8.666;2022-10-26T08:08:11;7.33;;;4.80;;
12962;SDS011;6546;49.882;8.666;2022-10-26T08:10:40;9.67;;;4.30;;
12962;SDS011;6546;49.882;8.666;2022-10-26T08:13:11;7.67;;;4.30;;
12962;SDS011;6546;49.882;8.666;2022-10-26T08:15:38;8.20;;;4.37;;
12962;SDS011;6546;49.882;8.666;2022-10-26T08:18:05;6.60;;;4.10;;
12962;SDS011;6546;49.882;8.666;2022-10-26T08:20:33;9.10;;;4.33;;
12962;SDS011;6546;49.882;8.666;2022-10-26T08:23:01;8.37;;;3.90;;
12962;SDS011;6546;49.882;8.666;2022-10-26T08:25:32;8.37;;;4.43;;
12962;SDS011;6546;49.882;8.666;2022-10-26T08:27:59;9.70;;;4.27;;
12962;SDS011;6546;49.882;8.666;2022-10-26T08:30:27;4.57;;;3.90;;
12962;SDS011;6546;49.882;8.666;2022-10-26T08:32:57;14.17;;;4.93;;
12962;SDS011;6546;49.882;8.666;2022-10-26T08:35:24;7.17;;;4.20;;
12962;SDS011;6546;49.882;8.666;2022-10-26T08:37:53;6.33;;;3.90;;
12962;SDS011;6546;49.882;8.666;2022-10-26T08:40:23;7.47;;;4.13;;
12962;SDS011;6546;49.882;8.666;2022-10-26T08:42:55;10.67;;;3.93;;
12962;SDS011;6546;49.882;8.666;2022-10-26T08:45:25;10.17;;;3.87;;
12962;SDS011;6546;49.882;8.666;2022-10-26T08:47:55;6.30;;;3.60;;
12962;SDS011;6546;49.882;8.666;2022-10-26T08:50:26;5.77;;;3.43;;
12962;SDS011;6546;49.882;8.666;2022-10-26T08:52:57;6.23;;;3.57;;
12962;SDS011;6546;49.882;8.666;2022-10-26T08:55:32;5.83;;;3.00;;
12962;SDS011;6546;49.882;8.666;2022-10-26T08:58:06;6.13;;;3.43;;
12962;SDS011;6546;49.882;8.666;2022-10-26T09:00:40;5.70;;;2.80;;
12962;SDS011;6546;49.882;8.666;2022-10-26T09:03:11;5.60;;;2.97;;
12962;SDS011;6546;49.882;8.666;2022-10-26T09:05:49;9.07;;;3.30;;
12962;SDS011;6546;49.882;8.666;2022-10-26T09:08:28;5.20;;;2.70;;
12962;SDS011;6546;49.882;8.666;2022-10-26T09:11:04;5.23;;;2.77;;
12962;SDS011;6546;49.882;8.666;2022-10-26T09:13:41;4.70;;;3.10;;
12962;SDS011;6546;49.882;8.666;2022-10-26T09:16:21;4.60;;;3.57;;
12962;SDS011;6546;49.882;8.666;2022-10-26T09:18:53;7.53;;;2.63;;
12962;SDS011;6546;49.882;8.666;2022-10-26T09:21:33;7.37;;;3.20;;
12962;SDS011;6546;49.882;8.666;2022-10-26T09:24:07;6.40;;;2.70;;
12962;SDS011;6546;49.882;8.666;2022-10-26T09:26:43;6.13;;;2.80;;
12962;SDS011;6546;49.882;8.666;2022-10-26T09:29:19;6.77;;;3.07;;
12962;SDS011;6546;49.882;8.666;2022-10-26T09:31:50;8.30;;;2.70;;
12962;SDS011;6546;49.882;8.666;2022-10-26T09:34:24;6.23;;;3.30;;
12962;SDS011;6546;49.882;8.666;2022-10-26T09:36:54;4.83;;;2.80;;
12962;SDS011;6546;49.882;8.666;2022-10-26T09:39:28;4.83;;;2.53;;
12962;SDS011;6546;49.882;8.666;2022-10-26T09:42:03;7.27;;;2.90;;
12962;SDS011;6546;49.882;8.666;2022-10-26T09:44:41;6.03;;;2.67;;
12962;SDS011;6546;49.882;8.666;2022-10-26T09:47:13;6.50;;;2.80;;
12962;SDS011;6546;49.882;8.666;2022-10-26T09:49:48;5.07;;;2.90;;
12962;SDS011;6546;49.882;8.666;2022-10-26T09:52:19;6.40;;;3.03;;
12962;SDS011;6546;49.882;8.666;2022-10-26T09:54:46;8.43;;;3.57;;
12962;SDS011;6546;49.882;8.666;2022-10-26T09:57:14;6.27;;;3.00;;
12962;SDS011;6546;49.882;8.666;2022-10-26T09:59:43;4.37;;;2.60;;
12962;SDS011;6546;49.882;8.666;2022-10-26T10:02:33;5.23;;;3.20;;
12962;SDS011;6546;49.882;8.666;2022-10-26T10:05:01;4.60;;;2.97;;
12962;SDS011;6546;49.882;8.666;2022-10-26T10:07:28;4.83;;;2.77;;
12962;SDS011;6546;49.882;8.666;2022-10-26T10:10:07;4.60;;;3.07;;
12962;SDS011;6546;49.882;8.666;2022-10-26T10:12:41;4.00;;;2.47;;
12962;SDS011;6546;49.882;8.666;2022-10-26T10:15:15;8.47;;;2.97;;
12962;SDS011;6546;49.882;8.666;2022-10-26T10:17:48;4.07;;;2.70;;
12962;SDS011;6546;49.882;8.666;2022-10-26T10:20:19;8.63;;;3.77;;
12962;SDS011;6546;49.882;8.666;2022-10-26T10:22:55;6.10;;;3.07;;
12962;SDS011;6546;49.882;8.666;2022-10-26T10:25:26;5.50;;;2.83;;
12962;SDS011;6546;49.882;8.666;2022-10-26T10:28:00;6.67;;;2.73;;
12962;SDS011;6546;49.882;8.666;2022-10-26T10:30:28;5.13;;;2.83;;
12962;SDS011;6546;49.882;8.666;2022-10-26T10:33:03;3.30;;;2.43;;
12962;SDS011;6546;49.882;8.666;2022-10-26T10:35:31;5.27;;;2.60;;
12962;SDS011;6546;49.882;8.666;2022-10-26T10:37:58;4.93;;;2.57;;
12962;SDS011;6546;49.882;8.666;2022-10-26T10:40:26;7.77;;;3.73;;
12962;SDS011;6546;49.882;8.666;2022-10-26T10:43:02;5.90;;;2.80;;
12962;SDS011;6546;49.882;8.666;2022-10-26T10:45:31;5.70;;;2.97;;
12962;SDS011;6546;49.882;8.666;2022-10-26T10:48:00;2.87;;;2.50;;
12962;SDS011;6546;49.882;8.666;2022-10-26T10:50:28;4.77;;;2.53;;
12962;SDS011;6546;49.882;8.666;2022-10-26T10:55:38;4.03;;;3.00;;
12962;SDS011;6546;49.882;8.666;2022-10-26T10:58:15;8.57;;;3.10;;
12962;SDS011;6546;49.882;8.666;2022-10-26T11:00:51;5.67;;;2.70;;
12962;SDS011;6546;49.882;8.666;2022-10-26T11:03:29;6.07;;;2.80;;
12962;SDS011;6546;49.882;8.666;2022-10-26T11:06:05;3.57;;;2.43;;
12962;SDS011;6546;49.882;8.666;2022-10-26T11:08:42;5.53;;;3.03;;
12962;SDS011;6546;49.882;8.666;2022-10-26T11:11:15;5.93;;;3.00;;
12962;SDS011;6546;49.882;8.666;2022-10-26T11:13:54;7.10;;;3.03;;
12962;SDS011;6546;49.882;8.666;2022-10-26T11:16:25;7.77;;;3.10;;
12962;SDS011;6546;49.882;8.666;2022-10-26T11:18:56;8.17;;;3.10;;
12962;SDS011;6546;49.882;8.666;2022-10-26T11:21:30;6.83;;;3.07;;
12962;SDS011;6546;49.882;8.666;2022-10-26T11:24:06;8.20;;;3.20;;
12962;SDS011;6546;49.882;8.666;2022-10-26T11:26:42;8.17;;;3.33;;
12962;SDS011;6546;49.882;8.666;2022-10-26T11:29:20;7.70;;;2.77;;
12962;SDS011;6546;49.882;8.666;2022-10-26T11:31:58;5.23;;;3.13;;
12962;SDS011;6546;49.882;8.666;2022-10-26T11:34:33;8.30;;;3.50;;
12962;SDS011;6546;49.882;8.666;2022-10-26T11:37:04;8.07;;;3.67;;
12962;SDS011;6546;49.882;8.666;2022-10-26T11:39:41;6.53;;;3.13;;
12962;SDS011;6546;49.882;8.666;2022-10-26T11:42:21;4.37;;;2.87;;
12962;SDS011;6546;49.882;8.666;2022-10-26T11:44:56;7.03;;;3.40;;
12962;SDS011;6546;49.882;8.666;2022-10-26T11:47:29;7.63;;;3.90;;
12962;SDS011;6546;49.882;8.666;2022-10-26T11:50:04;6.00;;;3.40;;
12962;SDS011;6546;49.882;8.666;2022-10-26T11:52:42;7.93;;;4.13;;
12962;SDS011;6546;49.882;8.666;2022-10-26T11:55:12;8.13;;;4.13;;
12962;SDS011;6546;49.882;8.666;2022-10-26T11:57:39;4.73;;;2.87;;
12962;SDS011;6546;49.882;8.666;2022-10-26T12:00:13;7.70;;;3.10;;
12962;SDS011;6546;49.882;8.666;2022-10-26T12:02:41;6.40;;;3.40;;
12962;SDS011;6546;49.882;8.666;2022-10-26T12:05:16;7.27;;;3.37;;
12962;SDS011;6546;49.882;8.666;2022-10-26T12:07:47;5.77;;;3.63;;
12962;SDS011;6546;49.882;8.666;2022-10-26T12:10:21;7.40;;;3.43;;
12962;SDS011;6546;49.882;8.666;2022-10-26T12:12:59;9.13;;;3.43;;
12962;SDS011;6546;49.882;8.666;2022-10-26T12:15:35;6.83;;;3.30;;
12962;SDS011;6546;49.882;8.666;2022-10-26T12:18:11;6.10;;;2.80;;
12962;SDS011;6546;49.882;8.666;2022-10-26T12:20:49;6.43;;;2.67;;
12962;SDS011;6546;49.882;8.666;2022-10-26T12:23:19;7.53;;;2.90;;
12962;SDS011;6546;49.882;8.666;2022-10-26T12:25:48;6.70;;;3.00;;
12962;SDS011;6546;49.882;8.666;2022-10-26T12:34:09;5.87;;;2.80;;
12962;SDS011;6546;49.882;8.666;2022-10-26T12:36:47;7.33;;;3.70;;
12962;SDS011;6546;49.882;8.666;2022-10-26T12:39:25;6.67;;;2.80;;
12962;SDS011;6546;49.882;8.666;2022-10-26T12:41:54;7.83;;;3.03;;
12962;SDS011;6546;49.882;8.666;2022-10-26T12:44:32;4.53;;;2.50;;
12962;SDS011;6546;49.882;8.666;2022-10-26T12:47:02;10.03;;;3.20;;
12962;SDS011;6546;49.882;8.666;2022-10-26T12:55:17;6.60;;;3.23;;
12962;SDS011;6546;49.882;8.666;2022-10-26T12:57:57;9.07;;;2.90;;
12962;SDS011;6546;49.882;8.666;2022-10-26T13:00:38;5.87;;;3.47;;
12962;SDS011;6546;49.882;8.666;2022-10-26T13:03:15;10.00;;;3.23;;
12962;SDS011;6546;49.882;8.666;2022-10-26T13:06:02;6.00;;;3.23;;
12962;SDS011;6546;49.882;8.666;2022-10-26T13:08:43;5.20;;;2.77;;
12962;SDS011;6546;49.882;8.666;2022-10-26T13:11:14;7.97;;;3.47;;
12962;SDS011;6546;49.882;8.666;2022-10-26T13:13:44;3.47;;;2.83;;
12962;SDS011;6546;49.882;8.666;2022-10-26T13:16:18;5.10;;;3.33;;
12962;SDS011;6546;49.882;8.666;2022-10-26T13:18:51;7.80;;;4.30;;
12962;SDS011;6546;49.882;8.666;2022-10-26T13:21:18;6.93;;;3.53;;
12962;SDS011;6546;49.882;8.666;2022-10-26T13:23:46;7.77;;;3.40;;
12962;SDS011;6546;49.882;8.666;2022-10-26T13:26:22;8.10;;;3.03;;
12962;SDS011;6546;49.882;8.666;2022-10-26T13:28:51;5.57;;;3.17;;
12962;SDS011;6546;49.882;8.666;2022-10-26T13:34:22;11.80;;;3.50;;
12962;SDS011;6546;49.882;8.666;2022-10-26T13:36:52;6.30;;;3.37;;
12962;SDS011;6546;49.882;8.666;2022-10-26T13:39:34;5.17;;;3.00;;
12962;SDS011;6546;49.882;8.666;2022-10-26T13:42:02;5.07;;;3.83;;
12962;SDS011;6546;49.882;8.666;2022-10-26T13:44:32;6.27;;;3.77;;
12962;SDS011;6546;49.882;8.666;2022-10-26T13:47:06;8.80;;;3.27;;
12962;SDS011;6546;49.882;8.666;2022-10-26T13:49:38;4.93;;;2.93;;
12962;SDS011;6546;49.882;8.666;2022-10-26T13:52:11;9.10;;;2.53;;
12962;SDS011;6546;49.882;8.666;2022-10-26T13:54:41;7.67;;;3.23;;
12962;SDS011;6546;49.882;8.666;2022-10-26T13:57:15;7.53;;;3.20;;
12962;SDS011;6546;49.882;8.666;2022-10-26T13:59:46;6.57;;;2.70;;
12962;SDS011;6546;49.882;8.666;2022-10-26T14:02:17;5.67;;;3.10;;
12962;SDS011;6546;49.882;8.666;2022-10-26T14:04:52;8.00;;;2.97;;
12962;SDS011;6546;49.882;8.666;2022-10-26T14:07:28;6.13;;;3.30;;
12962;SDS011;6546;49.882;8.666;2022-10-26T14:10:01;6.17;;;2.37;;
12962;SDS011;6546;49.882;8.666;2022-10-26T14:12:28;5.00;;;2.63;;
12962;SDS011;6546;49.882;8.666;2022-10-26T14:14:56;5.40;;;2.53;;
12962;SDS011;6546;49.882;8.666;2022-10-26T14:17:31;5.63;;;2.53;;
12962;SDS011;6546;49.882;8.666;2022-10-26T14:20:02;5.57;;;2.60;;
12962;SDS011;6546;49.882;8.666;2022-10-26T14:22:30;5.23;;;3.33;;
12962;SDS011;6546;49.882;8.666;2022-10-26T14:24:57;7.67;;;2.90;;
12962;SDS011;6546;49.882;8.666;2022-10-26T14:27:26;8.10;;;2.80;;
12962;SDS011;6546;49.882;8.666;2022-10-26T14:29:57;6.33;;;3.00;;
12962;SDS011;6546;49.882;8.666;2022-10-26T14:32:26;7.13;;;2.73;;
12962;SDS011;6546;49.882;8.666;2022-10-26T14:34:53;5.07;;;2.70;;
12962;SDS011;6546;49.882;8.666;2022-10-26T14:37:24;6.80;;;2.37;;
12962;SDS011;6546;49.882;8.666;2022-10-26T14:40:00;7.43;;;3.00;;
12962;SDS011;6546;49.882;8.666;2022-10-26T14:42:29;5.10;;;3.50;;
12962;SDS011;6546;49.882;8.666;2022-10-26T14:44:59;5.27;;;3.03;;
12962;SDS011;6546;49.882;8.666;2022-10-26T14:47:27;8.47;;;3.37;;
12962;SDS011;6546;49.882;8.666;2022-10-26T14:49:55;9.77;;;2.90;;
12962;SDS011;6546;49.882;8.666;2022-10-26T14:52:22;6.53;;;2.90;;
12962;SDS011;6546;49.882;8.666;2022-10-26T14:54:55;3.23;;;2.57;;
12962;SDS011;6546;49.882;8.666;2022-10-26T14:57:30;9.17;;;2.97;;
12962;SDS011;6546;49.882;8.666;2022-10-26T14:59:59;5.67;;;2.77;;
12962;SDS011;6546;49.882;8.666;2022-10-26T15:02:27;7.87;;;3.20;;
12962;SDS011;6546;49.882;8.666;2022-10-26T15:04:58;7.37;;;2.90;;
12962;SDS011;6546;49.882;8.666;2022-10-26T15:07:34;5.77;;;2.63;;
12962;SDS011;6546;49.882;8.666;2022-10-26T15:10:05;7.30;;;3.40;;
12962;SDS011;6546;49.882;8.666;2022-10-26T15:12:54;7.60;;;3.10;;
12962;SDS011;6546;49.882;8.666;2022-10-26T15:15:21;6.97;;;3.27;;
12962;SDS011;6546;49.882;8.666;2022-10-26T15:17:49;5.93;;;3.13;;
12962;SDS011;6546;49.882;8.666;2022-10-26T15:20:19;4.13;;;3.00;;
12962;SDS011;6546;49.882;8.666;2022-10-26T15:22:52;9.03;;;3.33;;
12962;SDS011;6546;49.882;8.666;2022-10-26T15:25:20;6.00;;;3.03;;
12962;SDS011;6546;49.882;8.666;2022-10-26T15:27:50;4.93;;;3.37;;
12962;SDS011;6546;49.882;8.666;2022-10-26T15:30:24;5.40;;;3.40;;
12962;SDS011;6546;49.882;8.666;2022-10-26T15:32:52;6.63;;;3.07;;
12962;SDS011;6546;49.882;8.666;2022-10-26T15:35:24;7.07;;;3.53;;
12962;SDS011;6546;49.882;8.666;2022-10-26T15:37:57;7.77;;;3.33;;
12962;SDS011;6546;49.882;8.666;2022-10-26T15:40:25;7.10;;;3.63;;
12962;SDS011;6546;49.882;8.666;2022-10-26T15:42:58;8.30;;;3.60;;
12962;SDS011;6546;49.882;8.666;2022-10-26T15:45:26;4.67;;;3.20;;